메인 페이지
METAR-TAF:

METAR-TAF

공항 :

Hawarden, 웨일스

위도: 53-10N, 경도: 002-59W, 고도: 10m

현재 날씨관측

예보는 38분 전, 14:50시(UTC)에 발표되었습니다.
서남서11kt남서풍과 풍을 오가는
온도 18°C
습도 45%
기압 998 hPa
시정 10km 이상
고도 2100ft 상공 구름 조금
고도 3500ft 상공 구름 보통, 적란운.
시계 내 소나기,

METAR: EGNR 141450Z 25011KT 220V280 9999 VCSH FEW021 SCT035CB 18/06 Q0998

시각: 16:28 (15:28 UTC)

예보

예보는 1 시간 31분 전, 13:57시(UTC)에 발표되었습니다.
예보 대상 시간: 14일 15시부터 14일 20시까지 (UTC)
서남서9kt
시정 10km 이상
고도 3500ft 상공 구름 보통
일시적
14일 15시부터 14일 20시까지 (UTC)
시정: 6000m
소나기
확률 30% :
일시적
14일 15시부터 14일 20시까지 (UTC)
시정: 4000m
강한소나기,

TAF: EGNR 141357Z 1415/1420 24009KT 9999 SCT035 TEMPO 1415/1420 6000 SHRA PROB30 TEMPO 1415/1420 4000 +SHRA

4,000개 이상의 공항 관측 자료 및 예보 (METAR 및 TAF 보고).

지도상에서 검색 가능한 기상관측소가 노란 점과 빨간 점으로 표시되어 있습니다.

기상관측소 명을 보려면 표시 위로 마우스를 이동하세요.

날씨 관측과 예보를 보려면 클릭하세요.

지도 변경 : 확대하려면 엑스 표시가 있는 녹색 버튼, 축소하려면 빼기 표시가 있는 녹색 버튼, 다음 페이지의 지도를 보려면 녹색 화살표를 클릭하세요.


METAR-TAF: